Time;durP1;ratioP1;P1;durP2;ratioP2;P2;SDS_P1;SDS_P2;PMS_P1;PMS_P2;Temp;Humidity;BMP_temperature;BMP_pressure;BME280_temperature;BME280_humidity;BME280_pressure;Samples;Min_cycle;Max_cycle;Signal;HPM_P1;HPM_P2
2021/05/21 00:00:21;;;;;;;2.77;1.00;;;14.10;99.90;;;;;;5092916;28;20305;-79
2021/05/21 00:02:47;;;;;;;3.67;1.00;;;14.10;99.90;;;;;;5092804;28;20290;-80
2021/05/21 00:05:15;;;;;;;4.40;1.27;;;14.10;99.90;;;;;;5092832;28;20285;-79
2021/05/21 00:07:41;;;;;;;3.83;1.30;;;14.10;99.90;;;;;;5092697;28;20249;-79
2021/05/21 00:10:08;;;;;;;3.27;1.17;;;14.10;99.90;;;;;;5092881;28;20547;-80
2021/05/21 00:12:35;;;;;;;4.57;1.43;;;14.20;99.90;;;;;;5092470;28;20225;-84
2021/05/21 00:15:03;;;;;;;4.13;1.30;;;14.20;99.90;;;;;;5092721;28;20207;-80
2021/05/21 00:17:30;;;;;;;4.23;1.33;;;14.20;99.90;;;;;;5092627;28;20211;-82
2021/05/21 00:19:56;;;;;;;2.77;1.27;;;14.20;99.90;;;;;;5092689;28;20198;-78
2021/05/21 00:22:23;;;;;;;5.03;1.00;;;14.20;99.90;;;;;;5092477;28;20289;-81
2021/05/21 00:24:49;;;;;;;3.93;1.17;;;14.20;99.90;;;;;;5092851;28;20236;-79
2021/05/21 00:27:15;;;;;;;6.67;1.50;;;14.10;99.90;;;;;;5092310;28;20233;-79
2021/05/21 00:29:43;;;;;;;5.13;1.63;;;14.00;99.90;;;;;;5092217;28;20622;-79
2021/05/21 00:32:09;;;;;;;4.60;1.47;;;14.00;99.90;;;;;;5092692;28;20255;-79
2021/05/21 00:34:37;;;;;;;2.60;1.27;;;13.90;99.90;;;;;;5093064;28;20252;-81
2021/05/21 00:37:03;;;;;;;2.87;1.23;;;14.00;99.90;;;;;;5092427;28;20226;-78
2021/05/21 00:39:29;;;;;;;3.87;2.03;;;13.90;99.90;;;;;;5093020;28;20290;-79
2021/05/21 00:41:56;;;;;;;4.83;1.60;;;13.90;99.90;;;;;;5092198;28;20294;-78
2021/05/21 00:44:22;;;;;;;3.33;1.57;;;13.80;99.90;;;;;;5092257;28;20233;-79
2021/05/21 00:46:49;;;;;;;3.77;1.47;;;13.90;99.90;;;;;;5091860;28;20289;-79
2021/05/21 00:49:18;;;;;;;2.33;1.17;;;14.00;99.90;;;;;;5091930;28;20225;-79
2021/05/21 00:51:45;;;;;;;4.03;1.30;;;14.10;99.90;;;;;;5090342;28;20202;-83
2021/05/21 00:54:15;;;;;;;3.40;1.30;;;14.20;99.90;;;;;;5092311;28;20210;-80
2021/05/21 00:56:41;;;;;;;5.20;1.43;;;14.20;99.90;;;;;;5092142;28;20277;-81
2021/05/21 00:59:08;;;;;;;3.50;1.50;;;14.20;99.90;;;;;;5092201;28;20290;-80
2021/05/21 01:01:34;;;;;;;3.70;1.47;;;14.30;99.90;;;;;;5092138;28;20252;-79
2021/05/21 01:04:01;;;;;;;4.97;1.50;;;14.30;99.90;;;;;;5092395;28;20238;-81
2021/05/21 01:06:27;;;;;;;7.97;1.40;;;14.30;99.90;;;;;;5092628;28;20285;-79
2021/05/21 01:08:55;;;;;;;5.07;1.20;;;14.30;99.90;;;;;;5095041;28;20747;-79
2021/05/21 01:11:22;;;;;;;5.37;1.30;;;14.30;99.90;;;;;;5095797;28;20218;-79
2021/05/21 01:13:48;;;;;;;3.47;1.10;;;14.30;99.90;;;;;;5095419;28;20215;-79
2021/05/21 01:16:15;;;;;;;2.60;1.23;;;14.30;99.90;;;;;;5095763;28;20283;-79
2021/05/21 01:18:42;;;;;;;2.97;1.10;;;14.30;99.90;;;;;;5096032;28;20199;-79
2021/05/21 01:21:09;;;;;;;5.60;1.30;;;14.30;99.90;;;;;;5095752;28;20251;-82
2021/05/21 01:23:36;;;;;;;3.73;1.30;;;14.30;99.90;;;;;;5095420;28;20695;-81
2021/05/21 01:26:02;;;;;;;7.63;1.20;;;14.10;99.90;;;;;;5095693;28;20226;-80
2021/05/21 01:28:29;;;;;;;2.53;0.90;;;14.10;99.90;;;;;;5095528;28;20222;-79
2021/05/21 01:30:56;;;;;;;5.77;1.20;;;14.10;99.90;;;;;;5095704;28;20202;-79
2021/05/21 01:33:23;;;;;;;4.97;0.70;;;14.10;99.90;;;;;;5095793;28;20234;-80
2021/05/21 01:35:50;;;;;;;4.67;0.70;;;14.10;99.90;;;;;;5095294;28;20664;-79
2021/05/21 01:38:17;;;;;;;3.17;0.50;;;14.10;99.90;;;;;;5095296;28;20306;-80
2021/05/21 01:40:46;;;;;;;3.70;0.97;;;14.10;99.90;;;;;;5095267;28;20234;-78
2021/05/21 01:43:12;;;;;;;2.93;0.90;;;14.10;99.90;;;;;;5095190;28;20239;-80
2021/05/21 01:45:40;;;;;;;5.00;0.90;;;14.00;99.90;;;;;;5095494;28;20202;-79
2021/05/21 01:48:08;;;;;;;5.73;0.90;;;14.00;99.90;;;;;;5094981;28;20301;-79
2021/05/21 01:50:34;;;;;;;3.60;0.70;;;14.00;99.90;;;;;;5095521;28;20217;-83
2021/05/21 01:53:01;;;;;;;2.20;0.90;;;14.10;99.90;;;;;;5095323;28;20282;-81
2021/05/21 01:55:28;;;;;;;3.20;1.20;;;14.00;99.90;;;;;;5093356;28;20191;-85
2021/05/21 01:57:54;;;;;;;1.87;0.80;;;14.00;99.90;;;;;;5093980;28;20298;-79
2021/05/21 02:00:21;;;;;;;4.20;0.83;;;14.00;99.90;;;;;;5092938;28;20294;-79
2021/05/21 02:02:47;;;;;;;3.00;0.93;;;14.00;99.90;;;;;;5094226;28;20618;-81
2021/05/21 02:05:13;;;;;;;3.93;0.90;;;13.90;99.90;;;;;;5093234;28;20206;-79
2021/05/21 02:07:40;;;;;;;6.57;0.93;;;13.80;99.90;;;;;;5093355;28;20242;-79
2021/05/21 02:10:08;;;;;;;2.37;0.70;;;13.80;99.90;;;;;;5093714;28;20260;-79
2021/05/21 02:12:36;;;;;;;4.57;1.00;;;13.80;99.90;;;;;;5094763;28;20252;-79
2021/05/21 02:15:05;;;;;;;2.47;0.60;;;13.80;99.90;;;;;;5094974;28;20199;-79
2021/05/21 02:17:32;;;;;;;2.87;1.10;;;13.80;99.90;;;;;;5094515;28;20301;-79
2021/05/21 02:20:00;;;;;;;5.40;0.80;;;13.70;99.90;;;;;;5094253;28;20298;-79
2021/05/21 02:22:27;;;;;;;3.23;1.20;;;13.70;99.90;;;;;;5095501;28;20199;-79
2021/05/21 02:24:56;;;;;;;8.73;0.97;;;13.70;99.90;;;;;;5095346;28;20226;-81
2021/05/21 02:27:22;;;;;;;2.77;1.00;;;13.80;99.90;;;;;;5095154;28;20290;-79
2021/05/21 02:29:50;;;;;;;6.07;1.13;;;13.80;99.90;;;;;;5094808;28;20258;-79
2021/05/21 02:32:16;;;;;;;6.13;1.00;;;13.80;99.90;;;;;;5094983;28;20286;-81
2021/05/21 02:34:43;;;;;;;4.27;1.00;;;13.80;99.90;;;;;;5094999;28;20213;-82
2021/05/21 02:37:10;;;;;;;4.83;1.00;;;13.80;99.90;;;;;;5094877;28;20621;-83
2021/05/21 02:39:37;;;;;;;4.07;1.00;;;13.80;99.90;;;;;;5095362;28;20202;-79
2021/05/21 02:42:04;;;;;;;4.40;1.20;;;13.80;99.90;;;;;;5095060;28;20261;-80
2021/05/21 02:44:31;;;;;;;4.93;1.00;;;13.80;99.90;;;;;;5094718;28;20226;-80
2021/05/21 02:46:58;;;;;;;4.97;1.30;;;13.80;99.90;;;;;;5094587;28;20664;-79
2021/05/21 02:49:24;;;;;;;6.27;1.50;;;13.80;99.90;;;;;;5093297;28;20638;-79
2021/05/21 02:51:52;;;;;;;8.03;1.53;;;13.70;99.90;;;;;;5094520;28;20320;-81
2021/05/21 02:54:19;;;;;;;8.00;1.23;;;13.70;99.90;;;;;;5094031;28;20294;-79
2021/05/21 02:56:46;;;;;;;5.20;1.13;;;13.70;99.90;;;;;;5093440;28;20732;-79
2021/05/21 02:59:13;;;;;;;5.77;1.20;;;13.80;99.90;;;;;;5093995;28;20281;-79
2021/05/21 03:01:40;;;;;;;7.43;2.30;;;13.80;99.90;;;;;;5094303;28;20300;-79
2021/05/21 03:04:08;;;;;;;4.10;1.10;;;13.80;99.90;;;;;;5093673;28;20732;-83
2021/05/21 03:06:35;;;;;;;5.37;1.07;;;13.70;99.90;;;;;;5093584;28;20220;-84
2021/05/21 03:09:01;;;;;;;2.60;0.87;;;13.70;99.90;;;;;;5093797;28;20624;-80
2021/05/21 03:11:28;;;;;;;5.50;0.90;;;13.60;99.90;;;;;;5085827;28;20233;-80
2021/05/21 03:13:54;;;;;;;5.03;1.30;;;13.50;99.90;;;;;;5093470;28;20205;-79
2021/05/21 03:16:20;;;;;;;6.00;1.30;;;13.50;99.90;;;;;;5092954;28;20194;-79
2021/05/21 03:18:47;;;;;;;4.53;1.00;;;13.40;99.90;;;;;;5093097;28;20614;-80
2021/05/21 03:21:14;;;;;;;4.10;1.10;;;13.50;99.90;;;;;;5093944;28;20203;-83
2021/05/21 03:23:40;;;;;;;7.30;1.73;;;13.50;99.90;;;;;;5093033;28;20290;-79
2021/05/21 03:26:07;;;;;;;5.90;1.37;;;13.50;99.90;;;;;;5093580;28;20704;-81
2021/05/21 03:28:33;;;;;;;14.90;1.60;;;13.50;99.90;;;;;;5093054;28;20627;-79
2021/05/21 03:31:00;;;;;;;7.47;1.33;;;13.40;99.90;;;;;;5092254;28;20282;-79
2021/05/21 03:33:26;;;;;;;11.40;1.93;;;13.40;99.90;;;;;;5093309;28;20305;-79
2021/05/21 03:35:52;;;;;;;11.33;1.93;;;13.30;99.90;;;;;;5092895;28;20725;-82
2021/05/21 03:38:20;;;;;;;7.80;1.97;;;13.40;99.90;;;;;;5093418;28;20282;-78
2021/05/21 03:40:46;;;;;;;9.43;1.60;;;13.40;99.90;;;;;;5092946;28;20282;-82
2021/05/21 03:43:12;;;;;;;14.13;1.97;;;13.30;99.90;;;;;;5093244;28;20195;-80
2021/05/21 03:45:39;;;;;;;9.67;1.90;;;13.10;99.90;;;;;;5092907;28;20665;-81
2021/05/21 03:48:06;;;;;;;5.43;1.53;;;13.00;99.90;;;;;;5079113;28;20236;-80
2021/05/21 03:50:33;;;;;;;13.90;2.20;;;12.80;99.90;;;;;;5092913;28;20209;-80
2021/05/21 03:52:59;;;;;;;8.20;1.90;;;12.80;99.90;;;;;;5092887;28;20289;-82
2021/05/21 03:55:27;;;;;;;9.53;1.80;;;12.80;99.90;;;;;;5092387;28;20628;-79
2021/05/21 03:57:55;;;;;;;7.40;1.67;;;12.90;99.90;;;;;;5092637;28;20561;-79
2021/05/21 04:00:22;;;;;;;6.03;1.63;;;12.90;99.90;;;;;;5093239;28;20199;-79
2021/05/21 04:02:50;;;;;;;11.73;1.33;;;12.90;99.90;;;;;;5074958;28;20231;-80
2021/05/21 04:05:17;;;;;;;5.23;1.37;;;12.90;99.90;;;;;;5092265;28;20236;-80
2021/05/21 04:07:43;;;;;;;7.17;1.50;;;13.10;99.90;;;;;;5092439;28;20203;-81
2021/05/21 04:10:11;;;;;;;7.47;1.50;;;13.20;99.90;;;;;;5092447;28;20290;-80
2021/05/21 04:12:38;;;;;;;5.77;1.70;;;13.30;99.90;;;;;;5092582;28;20233;-81
2021/05/21 04:15:06;;;;;;;10.27;1.50;;;13.20;99.90;;;;;;5092502;28;20298;-80
2021/05/21 04:17:32;;;;;;;3.93;1.37;;;13.10;99.90;;;;;;5079067;28;20299;-80
2021/05/21 04:19:59;;;;;;;5.30;1.30;;;13.10;99.90;;;;;;5092304;28;20207;-80
2021/05/21 04:22:26;;;;;;;5.70;1.70;;;13.10;99.90;;;;;;5086484;28;20297;-82
2021/05/21 04:24:52;;;;;;;7.40;1.77;;;13.20;99.90;;;;;;5091600;28;20242;-79
2021/05/21 04:27:18;;;;;;;5.10;1.33;;;13.20;99.90;;;;;;5092589;28;21025;-84
2021/05/21 04:29:46;;;;;;;5.10;1.40;;;13.30;99.90;;;;;;5092589;28;20309;-83
2021/05/21 04:32:12;;;;;;;6.37;1.40;;;13.40;99.90;;;;;;5089930;28;20298;-79
2021/05/21 04:34:38;;;;;;;6.07;1.40;;;13.60;99.90;;;;;;5092092;28;20661;-79
2021/05/21 04:37:05;;;;;;;9.70;1.37;;;13.60;99.90;;;;;;5092412;28;20214;-80
2021/05/21 04:39:31;;;;;;;8.00;1.90;;;13.50;99.90;;;;;;5092133;28;20284;-81
2021/05/21 04:41:57;;;;;;;6.97;1.43;;;13.40;99.90;;;;;;5093345;28;20199;-80
2021/05/21 04:44:24;;;;;;;10.83;1.70;;;13.30;99.90;;;;;;5095882;28;20250;-80
2021/05/21 04:46:51;;;;;;;12.27;1.53;;;13.10;99.90;;;;;;5096945;28;20203;-79
2021/05/21 04:52:01;;;;;;;8.27;1.97;;;12.80;99.90;;;;;;5087908;28;20206;-81
2021/05/21 04:54:27;;;;;;;11.53;2.00;;;12.50;99.90;;;;;;5096012;28;20370;-81
2021/05/21 04:56:54;;;;;;;10.43;1.90;;;12.40;99.90;;;;;;5096423;28;20220;-81
2021/05/21 04:59:20;;;;;;;7.47;2.10;;;12.20;99.90;;;;;;5096061;28;20304;-81
2021/05/21 05:01:47;;;;;;;9.87;2.23;;;12.10;99.90;;;;;;5090583;28;20635;-80
2021/05/21 05:04:14;;;;;;;17.20;3.07;;;12.00;99.90;;;;;;5095225;28;20300;-80
2021/05/21 05:06:42;;;;;;;13.57;2.80;;;11.90;99.90;;;;;;5095668;28;20229;-81
2021/05/21 05:09:09;;;;;;;18.93;2.60;;;11.90;99.90;;;;;;5094977;28;20236;-81
2021/05/21 05:11:37;;;;;;;15.33;2.60;;;12.00;99.90;;;;;;5087631;28;20214;-81
2021/05/21 05:14:04;;;;;;;10.40;2.50;;;11.90;99.90;;;;;;5078353;28;20217;-82
2021/05/21 05:16:31;;;;;;;14.63;2.97;;;11.90;99.90;;;;;;5084175;28;20287;-80
2021/05/21 05:18:57;;;;;;;11.40;2.30;;;11.80;99.90;;;;;;5085728;28;20614;-80
2021/05/21 05:21:24;;;;;;;15.10;2.73;;;11.70;99.90;;;;;;5090290;28;20290;-83
2021/05/21 05:23:51;;;;;;;19.37;3.23;;;11.70;99.90;;;;;;5089098;28;20209;-80
2021/05/21 05:26:18;;;;;;;18.47;3.07;;;11.60;99.90;;;;;;5085974;28;20290;-78
2021/05/21 05:28:45;;;;;;;20.97;2.97;;;11.60;99.90;;;;;;5084284;28;20257;-81
2021/05/21 05:31:12;;;;;;;16.43;3.30;;;11.70;99.90;;;;;;5091373;28;20718;-78
2021/05/21 05:33:40;;;;;;;12.63;2.43;;;12.00;99.90;;;;;;5088553;28;21826;-78
2021/05/21 05:36:07;;;;;;;13.60;2.60;;;12.70;99.90;;;;;;5080052;28;20199;-80
2021/05/21 05:38:34;;;;;;;14.37;2.60;;;13.40;99.90;;;;;;5075434;28;20250;-79
2021/05/21 05:41:01;;;;;;;12.67;2.63;;;13.80;99.90;;;;;;5084839;28;20230;-79
2021/05/21 05:43:28;;;;;;;13.33;2.77;;;14.30;99.90;;;;;;5083990;28;20291;-81
2021/05/21 05:45:54;;;;;;;16.57;2.37;;;15.30;99.90;;;;;;5085191;28;20242;-79
2021/05/21 05:48:21;;;;;;;10.27;2.23;;;15.50;99.90;;;;;;5082163;28;20242;-81
2021/05/21 05:50:47;;;;;;;13.67;2.53;;;15.20;99.90;;;;;;5078952;28;20286;-80
2021/05/21 05:53:14;;;;;;;12.60;2.37;;;15.70;99.90;;;;;;5077621;28;20207;-79
2021/05/21 05:55:41;;;;;;;13.13;2.83;;;16.60;99.90;;;;;;5080563;28;20591;-79
2021/05/21 05:58:08;;;;;;;13.97;2.70;;;17.60;99.90;;;;;;5077231;28;20585;-81
2021/05/21 06:00:35;;;;;;;16.97;2.67;;;18.40;99.90;;;;;;5081483;28;20202;-82
2021/05/21 06:03:06;;;;;;;15.33;3.17;;;18.90;99.90;;;;;;5094173;28;20198;-80
2021/05/21 06:05:33;;;;;;;16.63;2.97;;;18.90;99.90;;;;;;5094266;28;20574;-82
2021/05/21 06:08:02;;;;;;;19.23;3.40;;;19.50;99.90;;;;;;5094542;28;20318;-82
2021/05/21 06:10:29;;;;;;;12.00;2.87;;;19.50;99.90;;;;;;5093778;28;20268;-77
2021/05/21 06:13:01;;;;;;;13.03;2.80;;;19.80;99.90;;;;;;5094121;28;20223;-80
2021/05/21 06:15:27;;;;;;;13.83;3.07;;;20.20;99.90;;;;;;5092899;28;20542;-79
2021/05/21 06:17:54;;;;;;;15.17;3.10;;;20.70;99.90;;;;;;5094855;28;20286;-81
2021/05/21 06:20:21;;;;;;;13.73;3.03;;;21.40;99.90;;;;;;5094494;28;20198;-80
2021/05/21 06:22:48;;;;;;;16.10;3.70;;;21.00;99.90;;;;;;5094755;28;20596;-81
2021/05/21 06:25:17;;;;;;;15.93;3.00;;;19.80;99.90;;;;;;5094198;28;20344;-81
2021/05/21 06:27:44;;;;;;;15.43;3.00;;;18.90;99.90;;;;;;5094197;28;20194;-81
2021/05/21 06:30:13;;;;;;;20.80;2.93;;;18.30;99.90;;;;;;5094180;28;20212;-80
2021/05/21 06:32:40;;;;;;;14.67;3.00;;;17.50;99.90;;;;;;5094508;28;20199;-80
2021/05/21 06:35:08;;;;;;;18.33;3.17;;;17.70;99.90;;;;;;5094288;28;20194;-82
2021/05/21 06:37:34;;;;;;;11.73;2.50;;;18.50;99.90;;;;;;5088123;28;20198;-81
2021/05/21 06:40:01;;;;;;;20.90;3.50;;;19.60;99.90;;;;;;5094080;28;20198;-81
2021/05/21 06:42:28;;;;;;;16.07;3.00;;;20.50;99.90;;;;;;5093744;28;20345;-80
2021/05/21 06:44:54;;;;;;;18.53;3.90;;;20.70;99.90;;;;;;5093937;28;20210;-81
2021/05/21 06:47:21;;;;;;;16.50;2.93;;;20.50;99.90;;;;;;5094039;28;20708;-81
2021/05/21 06:49:48;;;;;;;14.57;3.37;;;20.00;99.90;;;;;;5093746;28;20225;-82
2021/05/21 06:52:15;;;;;;;15.83;2.80;;;19.00;99.90;;;;;;5093463;28;20224;-82
2021/05/21 06:54:41;;;;;;;24.50;3.70;;;18.40;99.90;;;;;;5093111;28;20290;-80
2021/05/21 06:57:08;;;;;;;15.57;3.03;;;18.60;99.90;;;;;;5093446;28;20729;-81
2021/05/21 06:59:35;;;;;;;14.30;3.00;;;18.50;99.90;;;;;;5089803;28;20225;-80
2021/05/21 07:02:02;;;;;;;14.00;2.93;;;18.20;99.90;;;;;;5087396;28;20198;-78
2021/05/21 07:04:30;;;;;;;15.10;3.90;;;17.60;99.90;;;;;;5089393;28;20191;-81
2021/05/21 07:06:56;;;;;;;13.80;2.60;;;17.60;99.90;;;;;;5083854;28;20194;-81
2021/05/21 07:09:22;;;;;;;16.80;2.83;;;17.40;99.90;;;;;;5093965;28;20293;-83
2021/05/21 07:11:49;;;;;;;10.63;2.77;;;17.60;99.90;;;;;;5079499;28;20279;-81
2021/05/21 07:14:15;;;;;;;21.10;3.50;;;17.90;99.90;;;;;;5073556;28;20253;-81
2021/05/21 07:16:42;;;;;;;17.17;3.27;;;17.60;99.90;;;;;;5073937;28;20275;-79
2021/05/21 07:19:10;;;;;;;18.73;3.90;;;18.70;99.90;;;;;;5073778;28;20205;-83
2021/05/21 07:21:37;;;;;;;13.43;3.13;;;19.60;99.90;;;;;;5073795;28;20196;-79
2021/05/21 07:24:04;;;;;;;14.60;2.97;;;19.20;99.90;;;;;;5078049;28;20222;-80
2021/05/21 07:26:33;;;;;;;15.73;2.90;;;19.80;99.90;;;;;;5093508;28;20233;-81
2021/05/21 07:28:59;;;;;;;14.20;2.70;;;20.50;99.90;;;;;;5082997;28;20223;-81
2021/05/21 07:31:27;;;;;;;18.30;2.80;;;20.50;99.90;;;;;;5072952;28;20199;-79
2021/05/21 07:33:54;;;;;;;17.53;3.00;;;20.00;99.90;;;;;;5074128;28;20203;-80
2021/05/21 07:36:23;;;;;;;16.17;2.93;;;20.30;99.90;;;;;;5082764;28;20195;-79
2021/05/21 07:38:50;;;;;;;15.00;3.27;;;20.90;99.90;;;;;;5084527;28;20200;-78
2021/05/21 07:41:18;;;;;;;12.30;3.30;;;20.70;99.90;;;;;;5073325;28;20227;-82
2021/05/21 07:43:45;;;;;;;12.03;2.43;;;20.60;99.90;;;;;;5084502;28;20248;-78
2021/05/21 07:46:11;;;;;;;15.87;2.97;;;20.20;99.90;;;;;;5082883;28;20274;-80
2021/05/21 07:48:38;;;;;;;20.27;3.33;;;19.50;99.90;;;;;;5093321;28;20301;-79
2021/05/21 07:51:04;;;;;;;15.90;3.13;;;18.80;99.90;;;;;;5093461;28;20222;-82
2021/05/21 07:53:33;;;;;;;15.83;2.63;;;18.70;99.90;;;;;;5088723;28;20675;-81
2021/05/21 07:56:00;;;;;;;17.03;3.00;;;18.50;99.90;;;;;;5082642;28;20195;-80
2021/05/21 07:58:27;;;;;;;22.30;3.33;;;18.10;99.90;;;;;;5091855;28;20291;-81
2021/05/21 08:00:53;;;;;;;14.53;3.07;;;17.80;99.90;;;;;;5091845;28;20199;-81
2021/05/21 08:03:20;;;;;;;12.37;2.60;;;17.40;99.90;;;;;;5093092;28;20199;-80
2021/05/21 08:05:47;;;;;;;17.90;3.17;;;16.70;99.90;;;;;;5093104;28;20205;-82
2021/05/21 08:08:15;;;;;;;17.63;2.80;;;16.10;99.90;;;;;;5091852;28;20195;-80
2021/05/21 08:10:42;;;;;;;14.23;3.00;;;16.70;99.90;;;;;;5093459;28;20199;-81
2021/05/21 08:13:09;;;;;;;14.13;2.80;;;16.90;99.90;;;;;;5092846;28;20203;-79
2021/05/21 08:15:35;;;;;;;15.33;2.97;;;17.20;99.90;;;;;;5092648;28;20198;-82
2021/05/21 08:18:02;;;;;;;13.30;2.67;;;18.20;99.90;;;;;;5089614;28;20194;-79
2021/05/21 08:20:29;;;;;;;10.83;2.70;;;18.90;99.90;;;;;;5092217;28;20218;-79
2021/05/21 08:22:55;;;;;;;15.10;3.43;;;19.20;99.90;;;;;;5091835;28;20259;-79
2021/05/21 08:25:22;;;;;;;13.73;3.17;;;19.00;99.90;;;;;;5092087;28;20596;-82
2021/05/21 08:27:49;;;;;;;15.87;3.40;;;19.00;99.90;;;;;;5092797;28;20229;-79
2021/05/21 08:30:17;;;;;;;16.53;3.13;;;18.70;99.90;;;;;;5092421;28;20634;-79
2021/05/21 08:32:45;;;;;;;13.60;2.77;;;19.10;99.90;;;;;;5088775;28;20285;-81
2021/05/21 08:35:12;;;;;;;9.83;2.70;;;21.00;99.90;;;;;;5092997;28;20191;-80
2021/05/21 08:37:39;;;;;;;15.27;2.90;;;21.20;99.90;;;;;;5092755;28;20202;-82
2021/05/21 08:40:07;;;;;;;17.13;3.60;;;21.30;99.90;;;;;;5092374;28;20198;-80
2021/05/21 08:42:39;;;;;;;11.03;2.83;;;22.40;99.90;;;;;;5088472;28;20232;-80
2021/05/21 08:45:08;;;;;;;10.00;2.70;;;23.30;99.90;;;;;;5084732;28;20692;-82
2021/05/21 08:47:37;;;;;;;15.35;3.42;;;23.70;99.90;;;;;;5092994;28;20195;-81
2021/05/21 08:50:05;;;;;;;13.90;3.28;;;23.80;99.90;;;;;;5092951;28;20701;-82
2021/05/21 08:52:31;;;;;;;13.13;3.50;;;23.90;99.90;;;;;;5095893;28;20208;-79
2021/05/21 08:54:58;;;;;;;11.70;3.22;;;24.20;99.90;;;;;;5097154;28;20196;-81
2021/05/21 08:57:25;;;;;;;12.23;2.70;;;24.60;99.90;;;;;;5074362;28;20245;-80
2021/05/21 08:59:51;;;;;;;16.45;3.05;;;24.20;99.90;;;;;;5081693;28;20298;-80
2021/05/21 09:02:24;;;;;;;13.20;3.42;;;23.10;99.90;;;;;;5092195;28;20198;-79
2021/05/21 09:04:55;;;;;;;15.70;3.17;;;23.80;99.90;;;;;;5088733;28;20289;-81
2021/05/21 09:07:23;;;;;;;16.63;2.93;;;23.10;99.90;;;;;;5091659;28;20219;-81
2021/05/21 09:09:50;;;;;;;13.07;2.87;;;21.20;99.90;;;;;;5080646;28;20253;-79
2021/05/21 09:12:19;;;;;;;17.90;2.87;;;19.50;99.90;;;;;;5091257;28;20254;-80
2021/05/21 09:15:07;;;;;;;14.27;2.60;;;18.60;99.90;;;;;;5091289;28;20226;-81
2021/05/21 09:17:33;;;;;;;16.73;2.63;;;19.10;99.90;;;;;;5087580;28;20234;-79
2021/05/21 09:20:01;;;;;;;14.00;3.20;;;19.30;99.90;;;;;;5088696;28;20708;-79
2021/05/21 09:22:27;;;;;;;15.00;2.80;;;19.40;99.90;;;;;;5088381;28;20194;-78
2021/05/21 09:24:54;;;;;;;14.27;2.83;;;20.00;99.90;;;;;;5085743;28;20199;-80
2021/05/21 09:27:20;;;;;;;11.20;2.63;;;20.00;99.90;;;;;;5091401;28;20226;-79
2021/05/21 09:29:48;;;;;;;10.00;2.53;;;19.70;99.90;;;;;;5094312;28;20256;-80
2021/05/21 09:32:20;;;;;;;13.30;3.40;;;20.00;99.90;;;;;;5095096;28;20577;-80
2021/05/21 09:34:57;;;;;;;22.57;3.30;;;20.10;99.90;;;;;;5095929;28;20278;-79
2021/05/21 09:37:26;;;;;;;13.77;3.00;;;20.00;99.90;;;;;;5095537;28;20243;-80
2021/05/21 09:40:16;;;;;;;13.03;2.67;;;20.20;99.90;;;;;;5095571;28;20317;-79
2021/05/21 09:42:55;;;;;;;12.40;3.13;;;21.30;99.90;;;;;;5097042;28;20191;-79
2021/05/21 09:45:30;;;;;;;9.73;2.63;;;22.40;99.90;;;;;;5098310;28;20201;-80
2021/05/21 09:47:59;;;;;;;12.00;2.60;;;22.20;99.90;;;;;;5099192;28;20304;-79
2021/05/21 09:50:42;;;;;;;12.30;2.30;;;21.20;99.90;;;;;;5099149;28;20215;-79
2021/05/21 09:53:12;;;;;;;12.70;2.20;;;20.10;99.90;;;;;;5098679;28;20195;-82
2021/05/21 09:55:40;;;;;;;8.83;2.33;;;19.50;99.90;;;;;;5094487;28;20321;-80
2021/05/21 09:58:08;;;;;;;13.10;2.47;;;19.30;99.90;;;;;;5092089;28;20283;-80
2021/05/21 10:00:35;;;;;;;10.63;2.10;;;19.00;99.90;;;;;;5076211;28;20240;-80
2021/05/21 10:03:03;;;;;;;9.67;2.20;;;18.50;99.90;;;;;;5076545;28;20290;-80
2021/05/21 10:05:29;;;;;;;16.37;2.57;;;17.90;99.90;;;;;;5079668;28;20196;-80
2021/05/21 10:07:56;;;;;;;10.83;1.93;;;17.40;99.90;;;;;;5097857;28;20228;-80
2021/05/21 10:10:25;;;;;;;11.93;2.70;;;17.20;99.90;;;;;;5098235;28;20219;-80
2021/05/21 10:12:52;;;;;;;10.93;2.20;;;16.80;99.90;;;;;;5099098;28;20203;-79
2021/05/21 10:15:19;;;;;;;17.57;2.70;;;16.40;99.90;;;;;;5098262;28;20207;-79
2021/05/21 10:17:46;;;;;;;12.60;2.60;;;16.20;99.90;;;;;;5098630;28;20237;-81
2021/05/21 10:20:14;;;;;;;12.00;2.50;;;16.60;99.90;;;;;;5097500;28;20282;-82
2021/05/21 10:22:45;;;;;;;11.30;2.47;;;17.30;99.90;;;;;;5096793;28;20199;-79
2021/05/21 10:25:15;;;;;;;11.17;2.47;;;18.60;99.90;;;;;;5096780;28;20187;-79
2021/05/21 10:27:46;;;;;;;10.13;2.13;;;20.00;99.90;;;;;;5097501;28;20195;-83
2021/05/21 10:30:14;;;;;;;9.50;2.30;;;20.30;99.90;;;;;;5096486;28;20305;-79
2021/05/21 10:32:41;;;;;;;13.53;2.60;;;20.60;99.90;;;;;;5096027;28;20207;-82
2021/05/21 10:35:17;;;;;;;9.87;2.57;;;21.00;99.90;;;;;;5096713;28;20289;-79
2021/05/21 10:37:44;;;;;;;12.97;2.60;;;21.70;99.90;;;;;;5095113;28;20281;-82
2021/05/21 10:40:13;;;;;;;11.43;2.50;;;21.70;99.90;;;;;;5094407;28;20661;-79
2021/05/21 10:42:47;;;;;;;9.83;2.37;;;22.20;99.90;;;;;;5095102;28;20203;-79
2021/05/21 10:45:16;;;;;;;10.00;2.50;;;22.80;99.90;;;;;;5095309;28;20284;-80
2021/05/21 10:47:46;;;;;;;12.50;2.30;;;23.10;99.90;;;;;;5095366;28;20272;-80
2021/05/21 10:50:18;;;;;;;14.30;2.73;;;23.40;99.90;;;;;;5095140;28;20222;-82
2021/05/21 10:52:54;;;;;;;12.43;3.20;;;23.20;99.90;;;;;;5094421;28;20191;-80
2021/05/21 10:55:37;;;;;;;17.37;2.67;;;23.20;99.90;;;;;;5094740;28;20202;-83
2021/05/21 10:58:04;;;;;;;9.23;2.27;;;22.40;99.90;;;;;;5094500;28;20226;-82
2021/05/21 11:00:31;;;;;;;9.20;2.00;;;22.00;99.90;;;;;;5094390;28;20234;-83
2021/05/21 11:02:58;;;;;;;10.43;2.50;;;21.90;99.90;;;;;;5094494;28;20194;-82
2021/05/21 11:05:28;;;;;;;14.77;2.90;;;22.40;99.90;;;;;;5093753;28;20240;-81
2021/05/21 11:07:56;;;;;;;12.40;2.57;;;22.60;99.90;;;;;;5094520;28;20202;-81
2021/05/21 11:10:41;;;;;;;11.10;2.37;;;21.50;99.90;;;;;;5094083;28;20230;-80
2021/05/21 11:13:11;;;;;;;10.80;2.73;;;20.60;99.90;;;;;;5094638;28;20202;-82
2021/05/21 11:15:40;;;;;;;10.87;2.70;;;19.80;99.90;;;;;;5094573;28;20198;-82
2021/05/21 11:18:24;;;;;;;8.73;2.20;;;19.30;99.90;;;;;;5094346;28;20195;-83
2021/05/21 11:20:56;;;;;;;16.73;2.67;;;18.80;99.90;;;;;;5094541;28;20225;-80
2021/05/21 11:23:24;;;;;;;13.13;2.20;;;18.80;99.90;;;;;;5094085;28;20241;-83
2021/05/21 11:26:22;;;;;;;29.77;4.07;;;18.50;99.90;;;;;;5093441;28;20206;-84
2021/05/21 11:28:54;;;;;;;11.50;2.40;;;17.90;99.90;;;;;;5093557;28;20215;-81
2021/05/21 11:31:22;;;;;;;12.50;2.20;;;17.80;99.90;;;;;;5073696;28;20223;-81
2021/05/21 11:33:51;;;;;;;10.53;2.13;;;19.20;99.90;;;;;;5073659;28;20196;-79
2021/05/21 11:36:18;;;;;;;16.60;2.40;;;19.20;99.90;;;;;;5073461;28;20279;-83
2021/05/21 11:38:45;;;;;;;12.20;2.30;;;19.40;99.90;;;;;;5073082;28;20203;-81
2021/05/21 11:41:12;;;;;;;14.10;2.13;;;19.90;99.90;;;;;;5072904;28;20684;-81
2021/05/21 11:43:40;;;;;;;12.53;2.20;;;20.20;99.90;;;;;;5073682;28;20202;-80
2021/05/21 11:46:13;;;;;;;11.47;2.13;;;19.70;99.90;;;;;;5073129;28;20227;-79
2021/05/21 11:48:41;;;;;;;13.23;2.73;;;20.50;99.90;;;;;;5073008;28;20211;-83
2021/05/21 11:51:13;;;;;;;13.33;2.70;;;21.60;99.90;;;;;;5072920;28;20242;-80
2021/05/21 11:53:50;;;;;;;33.73;4.60;;;21.50;99.90;;;;;;5088461;28;20232;-81
2021/05/21 11:56:28;;;;;;;10.20;2.00;;;21.10;99.90;;;;;;5093354;28;20222;-84
2021/05/21 11:59:01;;;;;;;14.43;2.60;;;20.50;99.90;;;;;;5073235;28;20594;-85
2021/05/21 12:01:29;;;;;;;12.67;2.40;;;20.80;99.90;;;;;;5072112;28;20560;-82
2021/05/21 12:03:56;;;;;;;9.07;1.97;;;21.00;99.90;;;;;;5070847;28;20263;-83
2021/05/21 12:06:22;;;;;;;10.37;1.90;;;21.40;99.90;;;;;;5070995;28;20286;-80
2021/05/21 12:08:51;;;;;;;10.10;1.97;;;21.40;99.90;;;;;;5071293;28;20245;-81
2021/05/21 12:11:17;;;;;;;9.67;2.40;;;21.80;99.90;;;;;;5070946;28;20199;-81
2021/05/21 12:13:44;;;;;;;12.23;2.10;;;22.20;99.90;;;;;;5071282;28;20282;-82
2021/05/21 12:16:13;;;;;;;9.80;2.27;;;22.00;99.90;;;;;;5071062;28;20242;-81
2021/05/21 12:18:41;;;;;;;9.47;2.07;;;22.30;99.90;;;;;;5073022;28;20235;-81
2021/05/21 12:21:08;;;;;;;15.23;2.37;;;22.10;99.90;;;;;;5073136;28;20286;-84
2021/05/21 12:23:38;;;;;;;10.03;2.53;;;21.20;99.90;;;;;;5073538;28;20282;-80
2021/05/21 12:26:05;;;;;;;15.93;2.47;;;20.30;99.90;;;;;;5073087;28;20485;-84
2021/05/21 12:28:32;;;;;;;11.20;2.20;;;20.10;99.90;;;;;;5072657;28;20326;-82
2021/05/21 12:31:03;;;;;;;95.57;8.23;;;20.20;99.90;;;;;;5072565;28;20326;-79
2021/05/21 12:33:31;;;;;;;8.37;2.30;;;20.90;99.90;;;;;;5073196;28;20269;-81
2021/05/21 12:36:06;;;;;;;10.23;2.17;;;20.60;99.90;;;;;;5072911;28;20641;-81
2021/05/21 12:38:33;;;;;;;11.00;2.13;;;19.80;99.90;;;;;;5082152;28;20236;-83
2021/05/21 12:41:00;;;;;;;13.07;2.37;;;19.40;99.90;;;;;;5092779;28;20350;-82
2021/05/21 12:43:28;;;;;;;14.73;1.97;;;19.10;99.90;;;;;;5092575;28;20199;-81
2021/05/21 12:46:01;;;;;;;10.00;2.00;;;20.10;99.90;;;;;;5093114;28;20201;-83